Time;durP1;ratioP1;P1;durP2;ratioP2;P2;SDS_P1;SDS_P2;PMS_P1;PMS_P2;Temp;Humidity;BMP_temperature;BMP_pressure;BME280_temperature;BME280_humidity;BME280_pressure;Samples;Min_cycle;Max_cycle;Signal;HPM_P1;HPM_P2
2021/05/15 00:01:12;;;;;;;1.70;1.60;;;;;;;12.28;64.45;93755.96;1711169;83;20994;-54
2021/05/15 00:03:39;;;;;;;1.80;1.70;;;;;;;12.23;64.42;93762.17;1711353;82;20994;-54
2021/05/15 00:06:06;;;;;;;2.22;1.70;;;;;;;12.21;64.63;93760.52;1711266;83;21095;-52
2021/05/15 00:08:33;;;;;;;8.95;2.02;;;;;;;12.20;64.66;93760.98;1710979;83;21090;-54
2021/05/15 00:10:59;;;;;;;2.45;1.60;;;;;;;12.23;64.78;93767.68;1711110;83;21118;-54
2021/05/15 00:13:26;;;;;;;5.37;2.08;;;;;;;12.22;64.84;93763.41;1711094;83;20967;-53
2021/05/15 00:15:53;;;;;;;2.42;2.00;;;;;;;12.22;64.87;93767.55;1711455;83;21019;-53
2021/05/15 00:18:20;;;;;;;2.27;1.90;;;;;;;12.24;64.84;93762.30;1711418;83;20995;-53
2021/05/15 00:20:47;;;;;;;1.77;1.52;;;;;;;12.27;64.76;93762.72;1711408;83;20983;-54
2021/05/15 00:23:14;;;;;;;2.35;2.15;;;;;;;12.30;64.52;93770.02;1711343;82;21308;-54
2021/05/15 00:25:41;;;;;;;2.62;2.40;;;;;;;12.34;64.60;93768.45;1710102;82;21574;-55
2021/05/15 00:28:08;;;;;;;3.52;2.40;;;;;;;12.36;64.97;93766.73;1711379;82;21014;-54
2021/05/15 00:30:35;;;;;;;6.67;2.67;;;;;;;12.37;65.25;93773.77;1711343;82;21074;-54
2021/05/15 00:33:02;;;;;;;2.50;1.90;;;;;;;12.32;65.10;93775.07;1711524;82;21035;-54
2021/05/15 00:35:29;;;;;;;1.87;1.77;;;;;;;12.28;64.99;93771.12;1711226;82;21279;-54
2021/05/15 00:37:56;;;;;;;4.42;1.98;;;;;;;12.25;65.02;93772.73;1711383;83;20912;-55
2021/05/15 00:40:23;;;;;;;2.25;1.82;;;;;;;12.23;65.04;93774.58;1711444;83;21050;-54
2021/05/15 00:42:49;;;;;;;4.35;2.52;;;;;;;12.21;65.22;93778.44;1711313;83;21019;-54
2021/05/15 00:45:16;;;;;;;4.40;3.05;;;;;;;12.19;65.46;93778.16;1711297;83;20912;-53
2021/05/15 00:47:43;;;;;;;2.30;2.10;;;;;;;12.19;65.57;93780.92;1711482;83;21172;-53
2021/05/15 00:50:11;;;;;;;2.60;2.22;;;;;;;12.19;65.52;93774.03;1711224;83;20995;-53
2021/05/15 00:52:38;;;;;;;2.40;2.00;;;;;;;12.18;65.40;93775.27;1711340;83;20963;-53
2021/05/15 00:55:11;;;;;;;2.17;1.80;;;;;;;12.20;65.39;93776.92;1711466;83;21055;-53
2021/05/15 00:57:39;;;;;;;2.30;2.08;;;;;;;12.20;65.34;93782.44;1710470;83;20983;-53
2021/05/15 01:00:09;;;;;;;2.20;2.00;;;;;;;12.18;65.58;93780.78;1711387;83;21571;-53
2021/05/15 01:02:37;;;;;;;2.30;2.10;;;;;;;12.13;65.88;93775.95;1711132;83;20988;-53
2021/05/15 01:05:05;;;;;;;3.50;2.08;;;;;;;12.10;66.12;93782.41;1711533;83;21011;-53
2021/05/15 01:07:31;;;;;;;1.90;1.80;;;;;;;12.06;66.59;93787.37;1711263;83;21535;-53
2021/05/15 01:09:58;;;;;;;4.08;2.30;;;;;;;12.01;66.73;93783.92;1711316;83;20967;-53
2021/05/15 01:12:25;;;;;;;2.20;2.00;;;;;;;11.97;67.07;93786.12;1711152;82;21077;-53
2021/05/15 01:14:52;;;;;;;2.35;1.92;;;;;;;11.95;67.42;93786.45;1711295;82;21099;-53
2021/05/15 01:17:19;;;;;;;2.98;2.00;;;;;;;11.89;67.85;93785.61;1683353;83;21601;-53
2021/05/15 01:19:45;;;;;;;2.20;2.00;;;;;;;11.88;68.08;93789.61;1711385;83;21062;-53
2021/05/15 01:22:16;;;;;;;2.50;2.30;;;;;;;11.84;68.39;93789.02;1711405;82;21027;-53
2021/05/15 01:24:44;;;;;;;9.63;5.10;;;;;;;11.80;68.50;93785.11;1711086;82;21091;-53
2021/05/15 01:27:14;;;;;;;11.03;6.15;;;;;;;11.75;68.85;93784.38;1711194;82;20956;-53
2021/05/15 01:29:43;;;;;;;6.00;4.28;;;;;;;11.65;69.12;93791.25;1711166;83;20979;-53
2021/05/15 01:32:10;;;;;;;6.12;4.30;;;;;;;11.57;69.44;93793.48;1711377;83;21047;-52
2021/05/15 01:34:36;;;;;;;4.25;3.47;;;;;;;11.52;69.73;93794.88;1711396;83;21063;-53
2021/05/15 01:37:02;;;;;;;7.83;3.27;;;;;;;11.51;69.95;93791.98;1683269;83;21852;-52
2021/05/15 01:39:31;;;;;;;3.80;3.20;;;;;;;11.53;70.04;93799.78;1711360;83;21031;-54
2021/05/15 01:41:58;;;;;;;4.12;3.05;;;;;;;11.52;69.99;93799.01;1711224;83;21003;-53
2021/05/15 01:44:24;;;;;;;4.53;3.40;;;;;;;11.53;70.24;93795.66;1711403;82;21102;-53
2021/05/15 01:46:50;;;;;;;4.72;3.60;;;;;;;11.51;70.23;93796.11;1711380;83;21505;-53
2021/05/15 01:49:17;;;;;;;14.10;7.15;;;;;;;11.53;70.39;93795.02;1711434;83;21042;-53
2021/05/15 01:51:43;;;;;;;14.47;8.33;;;;;;;11.53;70.44;93801.16;1711296;83;21563;-53
2021/05/15 01:54:10;;;;;;;6.62;5.22;;;;;;;11.54;70.47;93802.05;1711212;82;20959;-54
2021/05/15 01:56:37;;;;;;;5.58;3.70;;;;;;;11.54;70.55;93803.42;1711319;83;21079;-53
2021/05/15 01:59:07;;;;;;;8.98;5.28;;;;;;;11.54;70.68;93812.32;1711448;83;21054;-54
2021/05/15 02:01:37;;;;;;;6.78;4.28;;;;;;;11.53;70.83;93806.67;1711307;83;21853;-53
2021/05/15 02:04:04;;;;;;;5.83;4.00;;;;;;;11.51;70.63;93805.75;1711240;83;21027;-54
2021/05/15 02:06:31;;;;;;;5.10;3.75;;;;;;;11.47;70.73;93809.33;1711336;82;20955;-53
2021/05/15 02:08:58;;;;;;;9.98;4.50;;;;;;;11.42;70.84;93808.62;1710871;83;21499;-53
2021/05/15 02:11:26;;;;;;;5.83;3.77;;;;;;;11.40;70.97;93802.83;1711103;82;21091;-53
2021/05/15 02:13:53;;;;;;;6.53;4.30;;;;;;;11.42;70.73;93805.86;1710523;82;21073;-52
2021/05/15 02:16:19;;;;;;;16.52;8.20;;;;;;;11.44;70.92;93808.91;1711315;83;20999;-53
2021/05/15 02:18:47;;;;;;;21.97;10.85;;;;;;;11.44;70.91;93808.12;1711349;83;21458;-54
2021/05/15 02:21:14;;;;;;;17.35;9.90;;;;;;;11.38;71.08;93810.78;1711389;83;21019;-54
2021/05/15 02:23:41;;;;;;;24.98;11.88;;;;;;;11.32;71.33;93814.06;1711198;82;21007;-53
2021/05/15 02:26:07;;;;;;;22.52;11.83;;;;;;;11.27;71.59;93818.86;1711158;83;21071;-53
2021/05/15 02:28:34;;;;;;;18.82;10.40;;;;;;;11.25;71.80;93808.94;1711087;83;20979;-53
2021/05/15 02:31:01;;;;;;;13.55;7.37;;;;;;;11.25;71.90;93817.20;1711340;83;21494;-53
2021/05/15 02:33:27;;;;;;;21.85;9.05;;;;;;;11.25;71.95;93824.08;1711290;83;21007;-54
2021/05/15 02:35:54;;;;;;;8.53;5.85;;;;;;;11.24;71.96;93822.56;1711288;82;21087;-53
2021/05/15 02:38:21;;;;;;;8.33;5.03;;;;;;;11.16;71.88;93817.27;1711115;83;21890;-53
2021/05/15 02:40:48;;;;;;;8.38;5.25;;;;;;;11.10;71.79;93817.80;1711093;83;21015;-53
2021/05/15 02:43:15;;;;;;;22.90;10.55;;;;;;;11.03;71.79;93815.42;1711389;83;20983;-53
2021/05/15 02:45:42;;;;;;;10.93;5.92;;;;;;;10.98;71.88;93816.06;1711382;83;21475;-54
2021/05/15 02:48:10;;;;;;;13.32;6.03;;;;;;;10.93;71.88;93832.45;1711345;83;20988;-53
2021/05/15 02:50:36;;;;;;;12.75;5.83;;;;;;;10.87;72.21;93825.49;1711349;83;21148;-54
2021/05/15 02:53:03;;;;;;;5.50;3.62;;;;;;;10.83;72.44;93833.77;1710876;83;21047;-53
2021/05/15 02:55:30;;;;;;;10.32;5.05;;;;;;;10.80;72.53;93834.09;1711330;82;20999;-53
2021/05/15 02:57:56;;;;;;;5.65;4.30;;;;;;;10.78;72.61;93845.44;1711225;83;21011;-53
2021/05/15 03:00:25;;;;;;;6.78;3.62;;;;;;;10.67;72.71;93834.20;1711236;83;21067;-53
2021/05/15 03:02:52;;;;;;;8.55;5.22;;;;;;;10.59;72.83;93843.27;1711201;83;21105;-55
2021/05/15 03:05:22;;;;;;;9.10;4.58;;;;;;;10.51;72.82;93840.73;1711056;82;21487;-53
2021/05/15 03:07:49;;;;;;;6.15;3.40;;;;;;;10.44;72.82;93842.45;1711100;83;21110;-53
2021/05/15 03:10:17;;;;;;;10.23;4.65;;;;;;;10.38;73.02;93850.56;1713064;83;21046;-52
2021/05/15 03:12:43;;;;;;;8.70;3.95;;;;;;;10.33;73.36;93849.09;1716451;83;21066;-55
2021/05/15 03:15:12;;;;;;;4.42;3.62;;;;;;;10.23;73.37;93851.13;1716544;83;21072;-52
2021/05/15 03:17:41;;;;;;;3.60;3.20;;;;;;;10.13;73.71;93864.75;1716428;83;20900;-54
2021/05/15 03:20:13;;;;;;;5.90;3.40;;;;;;;10.07;73.95;93866.63;1716509;82;20998;-54
2021/05/15 03:22:39;;;;;;;5.22;3.33;;;;;;;10.04;74.02;93859.92;1716672;83;21475;-52
2021/05/15 03:25:08;;;;;;;7.05;3.98;;;;;;;10.08;74.22;93867.38;1716708;83;21085;-53
2021/05/15 03:27:35;;;;;;;7.42;3.58;;;;;;;10.14;74.31;93871.03;1716540;83;21556;-53
2021/05/15 03:30:01;;;;;;;8.40;3.98;;;;;;;10.20;74.39;93878.78;1715833;82;21070;-54
2021/05/15 03:32:29;;;;;;;4.12;3.70;;;;;;;10.27;74.38;93879.20;1716478;83;20903;-54
2021/05/15 03:34:56;;;;;;;7.22;4.10;;;;;;;10.36;74.31;93880.52;1716557;83;21095;-53
2021/05/15 03:37:22;;;;;;;8.15;5.00;;;;;;;10.44;74.07;93878.97;1716679;83;21717;-52
2021/05/15 03:39:49;;;;;;;13.03;4.80;;;;;;;10.53;73.80;93883.66;1716676;83;21086;-53
2021/05/15 03:42:16;;;;;;;6.72;3.77;;;;;;;10.61;73.75;93877.94;1716603;83;21542;-53
2021/05/15 03:44:43;;;;;;;12.45;4.10;;;;;;;10.68;73.52;93884.48;1716700;83;21032;-53
2021/05/15 03:47:09;;;;;;;11.00;4.80;;;;;;;10.76;73.37;93889.91;1716604;83;20979;-53
2021/05/15 03:49:36;;;;;;;25.72;9.20;;;;;;;10.82;73.13;93885.91;1716748;83;21062;-53
2021/05/15 03:52:04;;;;;;;17.73;6.62;;;;;;;10.81;72.97;93894.02;1716656;82;21193;-53
2021/05/15 03:54:32;;;;;;;3.98;3.58;;;;;;;10.78;73.10;93890.83;1716676;83;20976;-53
2021/05/15 03:56:59;;;;;;;4.65;3.27;;;;;;;10.78;72.79;93895.70;1716733;83;21054;-53
2021/05/15 03:59:25;;;;;;;5.33;2.98;;;;;;;10.79;72.83;93890.34;1690508;83;21086;-54
2021/05/15 04:01:52;;;;;;;4.40;3.12;;;;;;;10.81;72.87;93900.27;1716596;82;21035;-54
2021/05/15 04:04:18;;;;;;;6.08;4.37;;;;;;;10.81;73.06;93899.52;1716813;82;21102;-54
2021/05/15 04:06:45;;;;;;;11.90;5.45;;;;;;;10.83;73.07;93910.18;1716655;82;21109;-53
2021/05/15 04:09:12;;;;;;;7.00;5.58;;;;;;;10.84;73.24;93907.57;1716608;83;20979;-54
2021/05/15 04:11:40;;;;;;;7.20;5.33;;;;;;;10.82;73.31;93907.28;1712282;83;21011;-54
2021/05/15 04:17:52;;;;;;;5.85;3.83;;;;;;;10.91;73.72;93914.12;1711506;83;21097;-55
2021/05/15 04:19:29;;;;;;;7.40;3.65;;;;;;;11.03;73.75;93910.37;1686428;83;21071;-55
2021/05/15 04:21:56;;;;;;;6.67;4.40;;;;;;;11.18;73.52;93918.03;1711378;83;21067;-53
2021/05/15 04:24:26;;;;;;;6.22;3.95;;;;;;;11.32;73.09;93912.44;1711386;83;21098;-53
2021/05/15 04:26:54;;;;;;;5.40;4.33;;;;;;;11.45;72.61;93917.83;1711133;82;21067;-53
2021/05/15 04:29:21;;;;;;;7.95;5.20;;;;;;;11.52;72.02;93910.56;1711381;83;21003;-53
2021/05/15 04:31:49;;;;;;;6.35;4.08;;;;;;;11.59;71.66;93919.88;1711200;82;20968;-53
2021/05/15 04:34:16;;;;;;;6.85;3.27;;;;;;;11.69;71.16;93922.67;1711375;83;21071;-54
2021/05/15 04:36:42;;;;;;;42.98;5.00;;;;;;;11.76;70.93;93923.70;1711255;82;21649;-54
2021/05/15 04:39:09;;;;;;;10.08;3.35;;;;;;;11.85;70.85;93924.97;1711373;82;21486;-54
2021/05/15 04:41:36;;;;;;;16.75;3.83;;;;;;;11.97;70.35;93920.41;1711370;82;21483;-54
2021/05/15 04:44:03;;;;;;;6.45;3.33;;;;;;;12.11;69.74;93917.64;1711376;83;21071;-54
2021/05/15 04:46:30;;;;;;;10.32;3.42;;;;;;;12.24;69.19;93927.76;1711392;82;20960;-53
2021/05/15 04:48:58;;;;;;;6.42;3.70;;;;;;;12.34;68.95;93925.05;1711393;83;21514;-53
2021/05/15 04:51:24;;;;;;;4.62;2.62;;;;;;;12.47;68.47;93927.50;1711482;83;21067;-54
2021/05/15 04:53:51;;;;;;;9.75;3.27;;;;;;;12.58;67.96;93922.30;1711175;83;21089;-53
2021/05/15 04:56:18;;;;;;;9.48;4.03;;;;;;;12.68;67.58;93932.59;1711255;82;21031;-53
2021/05/15 04:58:45;;;;;;;9.88;4.10;;;;;;;12.75;67.16;93932.92;1711454;82;21023;-54
2021/05/15 05:01:12;;;;;;;5.58;3.42;;;;;;;12.87;66.42;93927.72;1711303;83;20999;-54
2021/05/15 05:03:39;;;;;;;3.58;3.02;;;;;;;13.02;65.98;93933.20;1711447;83;21489;-54
2021/05/15 05:06:06;;;;;;;7.28;2.87;;;;;;;13.15;65.57;93935.02;1711388;83;21074;-54
2021/05/15 05:08:33;;;;;;;8.73;2.85;;;;;;;13.35;64.98;93933.63;1711109;82;21882;-55
2021/05/15 05:11:01;;;;;;;10.08;2.50;;;;;;;13.56;64.13;93933.75;1711024;82;21015;-54
2021/05/15 05:13:29;;;;;;;8.63;4.28;;;;;;;13.78;63.11;93940.92;1710334;82;20984;-54
2021/05/15 05:15:57;;;;;;;12.40;3.52;;;;;;;13.93;61.45;93940.17;1711404;82;20979;-54
2021/05/15 05:18:24;;;;;;;17.48;3.50;;;;;;;13.98;60.90;93936.73;1711168;83;22223;-54
2021/05/15 05:20:51;;;;;;;2.30;2.02;;;;;;;14.03;60.44;93948.46;1711028;83;21507;-55
2021/05/15 05:23:18;;;;;;;5.17;1.60;;;;;;;14.13;60.22;93949.80;1710987;82;20959;-53
2021/05/15 05:25:45;;;;;;;17.42;5.15;;;;;;;14.27;59.82;93952.50;1711405;82;21539;-54
2021/05/15 05:28:15;;;;;;;13.10;2.90;;;;;;;14.38;60.11;93951.84;1711410;83;20939;-54
2021/05/15 05:30:40;;;;;;;6.03;1.72;;;;;;;14.48;58.82;93953.30;1711110;83;21074;-54
2021/05/15 05:33:07;;;;;;;2.92;1.98;;;;;;;14.59;58.26;93952.01;1683090;83;20999;-55
2021/05/15 05:35:35;;;;;;;13.50;2.75;;;;;;;14.68;58.38;93957.99;1711105;83;21590;-55
2021/05/15 05:38:02;;;;;;;6.10;1.87;;;;;;;14.75;57.87;93947.84;1683509;83;21011;-54
2021/05/15 05:40:29;;;;;;;4.85;1.50;;;;;;;14.80;58.17;93949.91;1711323;83;20994;-54
2021/05/15 05:42:56;;;;;;;2.33;1.40;;;;;;;14.83;58.57;93952.43;1711165;83;20981;-54
2021/05/15 05:45:23;;;;;;;5.58;1.45;;;;;;;14.88;56.70;93955.88;1711324;83;21095;-54
2021/05/15 05:47:50;;;;;;;5.22;1.70;;;;;;;14.90;57.01;93950.61;1711336;82;20972;-55
2021/05/15 05:50:16;;;;;;;2.50;1.65;;;;;;;14.92;57.95;93956.41;1711212;82;21614;-53
2021/05/15 05:52:43;;;;;;;2.08;1.82;;;;;;;14.87;57.69;93957.75;1711619;83;21090;-54
2021/05/15 05:55:11;;;;;;;4.42;2.65;;;;;;;14.79;58.06;93960.22;1711299;82;21081;-54
2021/05/15 05:57:38;;;;;;;15.72;3.45;;;;;;;14.74;58.13;93960.94;1711227;82;21000;-55
2021/05/15 06:00:08;;;;;;;6.50;1.75;;;;;;;14.76;58.49;93963.20;1711288;83;21019;-54
2021/05/15 06:02:35;;;;;;;4.62;3.05;;;;;;;14.81;58.50;93961.12;1711032;82;21026;-55
2021/05/15 06:05:02;;;;;;;7.62;3.35;;;;;;;14.89;58.43;93960.78;1711311;83;21066;-54
2021/05/15 06:07:29;;;;;;;2.55;1.70;;;;;;;14.96;57.82;93959.70;1710733;82;21711;-55
2021/05/15 06:09:56;;;;;;;4.40;1.42;;;;;;;14.99;56.71;93964.25;1711231;82;21094;-55
2021/05/15 06:12:23;;;;;;;3.12;1.82;;;;;;;14.99;56.09;93966.28;1715203;82;21118;-54
2021/05/15 06:14:50;;;;;;;4.17;1.57;;;;;;;14.97;56.42;93960.48;1716461;83;20998;-55
2021/05/15 06:17:17;;;;;;;11.50;1.60;;;;;;;15.06;56.36;93958.27;1716326;83;21515;-54
2021/05/15 06:19:44;;;;;;;3.52;1.50;;;;;;;15.20;55.69;93965.63;1716733;83;21179;-55
2021/05/15 06:22:12;;;;;;;2.33;1.50;;;;;;;15.35;55.39;93963.48;1716404;83;20983;-55
2021/05/15 06:24:40;;;;;;;1.40;1.30;;;;;;;15.51;54.52;93965.58;1716570;83;21018;-57
2021/05/15 06:27:08;;;;;;;5.90;2.83;;;;;;;15.61;53.99;93960.58;1716632;83;21047;-54
2021/05/15 06:29:35;;;;;;;6.60;2.15;;;;;;;15.69;53.68;93965.15;1716539;82;21047;-56
2021/05/15 06:32:02;;;;;;;1.50;1.40;;;;;;;15.76;53.39;93960.50;1716586;83;21801;-54
2021/05/15 06:34:31;;;;;;;5.03;1.50;;;;;;;15.88;52.79;93964.84;1716492;83;20926;-55
2021/05/15 06:36:58;;;;;;;2.70;1.20;;;;;;;15.98;52.90;93966.14;1716493;82;20971;-55
2021/05/15 06:39:25;;;;;;;5.78;2.85;;;;;;;16.11;50.63;93965.66;1716595;83;21606;-55
2021/05/15 06:41:52;;;;;;;6.03;1.80;;;;;;;16.20;51.12;93956.47;1716561;83;20948;-54
2021/05/15 06:44:18;;;;;;;2.30;1.20;;;;;;;16.35;51.32;93961.20;1716411;82;21038;-55
2021/05/15 06:46:45;;;;;;;3.10;1.00;;;;;;;16.47;51.19;93959.93;1716475;83;21053;-54
2021/05/15 06:49:13;;;;;;;5.22;1.70;;;;;;;16.52;50.61;93962.72;1716413;82;21039;-55
2021/05/15 06:51:40;;;;;;;3.80;1.77;;;;;;;16.56;50.58;93961.09;1716614;83;20991;-54
2021/05/15 06:54:07;;;;;;;5.15;1.40;;;;;;;16.59;50.29;93962.23;1714854;82;21098;-55
2021/05/15 06:56:34;;;;;;;8.25;1.90;;;;;;;16.59;50.88;93967.79;1714950;82;21718;-55
2021/05/15 06:59:02;;;;;;;2.98;1.65;;;;;;;16.56;51.01;93968.03;1716401;83;21058;-54
2021/05/15 07:01:28;;;;;;;5.87;1.37;;;;;;;16.44;51.38;93965.11;1716439;82;21510;-55
2021/05/15 07:03:55;;;;;;;3.47;1.80;;;;;;;16.31;51.16;93974.52;1716597;83;21082;-55
2021/05/15 07:06:22;;;;;;;10.95;2.67;;;;;;;16.15;51.48;93974.50;1716550;83;21003;-55
2021/05/15 07:08:51;;;;;;;10.20;5.12;;;;;;;15.98;51.76;93968.92;1716275;83;20967;-55
2021/05/15 07:11:17;;;;;;;3.95;2.42;;;;;;;15.90;52.12;93969.90;1716184;83;21645;-55
2021/05/15 07:13:46;;;;;;;9.13;2.25;;;;;;;15.94;51.45;93975.31;1716441;83;20999;-54
2021/05/15 07:16:12;;;;;;;5.72;1.50;;;;;;;16.04;51.59;93968.91;1716704;83;21098;-53
2021/05/15 07:18:40;;;;;;;1.85;1.65;;;;;;;16.14;50.93;93970.98;1716571;82;20992;-55
2021/05/15 07:21:06;;;;;;;12.50;1.90;;;;;;;16.22;50.42;93971.98;1716837;83;21557;-54
2021/05/15 07:23:33;;;;;;;5.28;1.95;;;;;;;16.34;50.33;93974.92;1716598;83;21678;-54
2021/05/15 07:25:59;;;;;;;4.72;2.12;;;;;;;16.43;50.29;93973.31;1716657;82;20927;-55
2021/05/15 07:28:26;;;;;;;1.00;1.00;;;;;;;16.58;49.20;93972.45;1716593;83;21018;-55
2021/05/15 07:30:53;;;;;;;3.12;2.20;;;;;;;16.80;47.79;93968.28;1690631;83;21542;-55
2021/05/15 07:33:21;;;;;;;1.32;1.22;;;;;;;17.10;47.83;93975.58;1716663;83;20971;-55
2021/05/15 07:35:48;;;;;;;0.72;0.70;;;;;;;17.37;46.21;93976.83;1716627;83;21519;-55
2021/05/15 07:38:14;;;;;;;3.65;1.20;;;;;;;17.36;46.42;93964.95;1716725;82;21561;-57
2021/05/15 07:40:41;;;;;;;5.20;1.00;;;;;;;17.39;47.08;93967.34;1716907;83;21106;-54
2021/05/15 07:43:07;;;;;;;10.38;1.45;;;;;;;17.46;47.42;93962.66;1716755;82;20989;-56
2021/05/15 07:45:36;;;;;;;4.40;1.20;;;;;;;17.50;46.56;93965.28;1716720;83;21114;-55
2021/05/15 07:48:05;;;;;;;1.98;0.93;;;;;;;17.49;46.33;93961.63;1716657;83;21605;-54
2021/05/15 07:50:32;;;;;;;0.95;0.70;;;;;;;17.44;46.36;93962.41;1716731;82;20963;-55
2021/05/15 07:52:59;;;;;;;0.80;0.80;;;;;;;17.43;46.45;93965.07;1716597;83;20979;-55
2021/05/15 07:55:25;;;;;;;10.13;1.82;;;;;;;17.52;47.90;93967.56;1716735;83;21044;-55
2021/05/15 07:57:52;;;;;;;4.42;1.20;;;;;;;17.67;46.38;93968.77;1716630;83;21091;-55
2021/05/15 08:00:20;;;;;;;1.98;0.80;;;;;;;17.78;45.44;93965.18;1716715;82;21478;-56
2021/05/15 08:02:46;;;;;;;7.22;1.00;;;;;;;17.88;44.72;93971.98;1716632;83;21036;-54
2021/05/15 08:05:13;;;;;;;0.80;0.80;;;;;;;17.95;44.77;93971.44;1716835;83;21079;-56
2021/05/15 08:07:40;;;;;;;2.02;1.10;;;;;;;18.01;45.89;93970.80;1716444;82;20982;-56
2021/05/15 08:10:08;;;;;;;0.82;0.82;;;;;;;18.09;45.61;93975.31;1715867;83;21845;-56
2021/05/15 08:12:36;;;;;;;1.75;1.02;;;;;;;18.16;46.00;93974.75;1716429;82;21058;-55
2021/05/15 08:15:06;;;;;;;7.47;0.88;;;;;;;18.13;46.05;93979.31;1716558;82;21043;-55
2021/05/15 08:17:34;;;;;;;0.70;0.70;;;;;;;18.08;46.68;93974.42;1716651;83;21034;-55
2021/05/15 08:20:03;;;;;;;5.30;0.85;;;;;;;18.04;47.71;93978.11;1716612;83;20986;-55
2021/05/15 08:22:31;;;;;;;1.10;0.80;;;;;;;17.98;46.95;93986.48;1716887;82;21118;-55
2021/05/15 08:24:58;;;;;;;7.42;1.40;;;;;;;17.91;46.65;93983.48;1716718;82;20987;-55
2021/05/15 08:27:25;;;;;;;4.53;1.60;;;;;;;17.89;46.73;93988.80;1716649;82;21164;-55
2021/05/15 08:29:53;;;;;;;4.17;1.50;;;;;;;17.80;46.65;93994.67;1716642;83;21491;-55
2021/05/15 08:32:20;;;;;;;3.70;1.30;;;;;;;17.67;46.80;93996.58;1716722;83;20974;-56
2021/05/15 08:34:48;;;;;;;6.20;1.47;;;;;;;17.56;47.26;94000.03;1716535;83;21490;-55
2021/05/15 08:37:15;;;;;;;1.15;1.05;;;;;;;17.51;47.61;93995.25;1716502;83;21106;-55
2021/05/15 08:39:41;;;;;;;7.40;1.40;;;;;;;17.53;47.52;94001.83;1716690;83;20966;-55
2021/05/15 08:42:09;;;;;;;7.03;1.30;;;;;;;17.55;47.39;94000.69;1716774;82;21027;-55
2021/05/15 08:44:38;;;;;;;2.02;1.22;;;;;;;17.61;47.54;94003.45;1716682;82;21569;-56
2021/05/15 08:47:05;;;;;;;2.87;1.20;;;;;;;17.79;47.60;93993.16;1716475;82;21602;-57
2021/05/15 08:49:32;;;;;;;6.58;2.58;;;;;;;18.06;46.66;93995.05;1716619;82;21010;-56
2021/05/15 08:51:59;;;;;;;3.45;1.35;;;;;;;18.27;46.26;93997.75;1667617;83;20986;-55
2021/05/15 08:54:26;;;;;;;20.08;2.95;;;;;;;18.56;45.98;93999.88;1667636;83;21066;-56
2021/05/15 08:56:53;;;;;;;1.42;0.90;;;;;;;18.91;45.64;93994.30;1716585;83;21047;-56
2021/05/15 08:59:20;;;;;;;1.90;0.90;;;;;;;19.32;46.84;93992.81;1716607;82;21073;-56
2021/05/15 09:01:47;;;;;;;1.32;0.78;;;;;;;19.79;46.18;93989.30;1716653;82;21086;-55
2021/05/15 09:04:13;;;;;;;0.65;0.60;;;;;;;20.14;44.50;93995.50;1716921;82;21015;-55
2021/05/15 09:06:42;;;;;;;0.68;0.60;;;;;;;20.30;43.33;93993.14;1716372;83;21475;-55
2021/05/15 09:09:09;;;;;;;1.25;0.70;;;;;;;20.30;44.50;93995.16;1716048;83;20967;-55
2021/05/15 09:11:37;;;;;;;0.70;0.60;;;;;;;20.23;43.37;93990.19;1716349;82;21015;-57
2021/05/15 09:14:15;;;;;;;0.42;0.42;;;;;;;20.14;42.95;93986.34;1674023;85;21065;-56
2021/05/15 09:16:49;;;;;;;1.47;0.60;;;;;;;20.09;43.51;93992.03;1674495;84;21026;-54
2021/05/15 09:19:26;;;;;;;4.58;0.57;;;;;;;20.07;42.99;93984.82;1674407;85;21574;-54
2021/05/15 09:22:05;;;;;;;0.62;0.60;;;;;;;20.09;43.67;93990.62;1674412;85;21055;-55
2021/05/15 09:24:40;;;;;;;0.50;0.50;;;;;;;20.16;43.35;93983.81;1674537;85;21104;-55
2021/05/15 09:27:08;;;;;;;1.62;0.62;;;;;;;20.19;43.63;93996.06;1674315;85;21071;-57
2021/05/15 09:29:43;;;;;;;2.37;0.85;;;;;;;20.15;44.09;93990.65;1674349;85;21072;-55
2021/05/15 09:32:11;;;;;;;1.85;0.80;;;;;;;20.06;42.55;93996.62;1674516;85;21055;-54
2021/05/15 09:34:48;;;;;;;0.62;0.60;;;;;;;19.94;43.29;93989.61;1674329;85;21051;-55
2021/05/15 09:37:42;;;;;;;0.60;0.60;;;;;;;19.87;43.16;93990.84;1674233;85;21095;-55
2021/05/15 09:40:17;;;;;;;0.70;0.70;;;;;;;19.82;43.38;93989.64;1674355;85;20968;-55
2021/05/15 09:42:50;;;;;;;1.05;0.82;;;;;;;19.78;43.87;93990.55;1674398;85;21586;-55
2021/05/15 09:45:25;;;;;;;1.12;0.80;;;;;;;19.79;42.70;93994.89;1674463;85;21095;-56
2021/05/15 09:48:09;;;;;;;1.85;0.90;;;;;;;19.89;44.75;93991.84;1674499;85;22022;-55
2021/05/15 09:50:39;;;;;;;1.50;0.72;;;;;;;20.12;43.25;93986.78;1674471;85;21289;-56
2021/05/15 09:53:13;;;;;;;0.82;0.70;;;;;;;20.30;42.06;93983.98;1674325;85;21059;-56
2021/05/15 09:55:44;;;;;;;1.95;0.90;;;;;;;20.34;41.76;93984.46;1674291;85;20999;-55
2021/05/15 09:58:11;;;;;;;4.33;1.35;;;;;;;20.39;41.50;93982.97;1674355;85;21094;-55
2021/05/15 10:00:46;;;;;;;1.90;1.37;;;;;;;20.53;41.05;93981.76;1674285;85;21562;-56
2021/05/15 10:03:31;;;;;;;2.67;1.12;;;;;;;20.74;42.42;93984.11;1674246;85;21172;-55
2021/05/15 10:06:07;;;;;;;1.90;0.90;;;;;;;20.91;43.15;93983.91;1674361;85;20995;-55
2021/05/15 10:08:35;;;;;;;2.70;1.12;;;;;;;21.11;41.76;93980.53;1674308;84;21051;-54
2021/05/15 10:11:04;;;;;;;2.45;1.10;;;;;;;21.19;39.06;93977.97;1674229;85;21178;-55
2021/05/15 10:13:36;;;;;;;0.93;0.82;;;;;;;21.22;38.12;93977.53;1697528;83;21510;-56
2021/05/15 10:16:04;;;;;;;1.40;1.00;;;;;;;21.18;38.04;93974.30;1711398;82;21674;-56
2021/05/15 10:18:31;;;;;;;18.17;12.03;;;;;;;21.37;38.23;93978.55;1711172;83;21019;-58
2021/05/15 10:21:00;;;;;;;4.92;3.27;;;;;;;21.51;38.29;93977.92;1711430;82;21495;-56
2021/05/15 10:23:38;;;;;;;1.40;1.27;;;;;;;21.68;38.09;93974.20;1711285;82;21035;-56
2021/05/15 10:26:12;;;;;;;1.67;0.90;;;;;;;21.75;38.20;93973.55;1711320;83;21059;-56
2021/05/15 10:28:39;;;;;;;1.32;0.88;;;;;;;21.78;37.90;93973.88;1707032;83;21546;-55
2021/05/15 10:31:13;;;;;;;14.03;2.50;;;;;;;21.84;37.79;93968.94;1711168;82;21111;-56
2021/05/15 10:33:43;;;;;;;4.95;1.12;;;;;;;21.92;37.43;93966.98;1711292;83;21020;-56
2021/05/15 10:36:23;;;;;;;4.92;1.77;;;;;;;22.03;36.70;93970.98;1711280;83;21076;-55
2021/05/15 10:38:52;;;;;;;1.62;1.00;;;;;;;22.14;36.87;93965.23;1711347;83;20991;-56
2021/05/15 10:41:25;;;;;;;4.55;1.65;;;;;;;22.21;36.76;93968.80;1711153;83;21848;-55
2021/05/15 10:43:56;;;;;;;6.60;1.25;;;;;;;22.18;36.44;93964.28;1711075;82;20991;-56
2021/05/15 10:46:26;;;;;;;6.92;1.27;;;;;;;22.15;36.80;93968.14;1683684;83;20972;-55
2021/05/15 10:49:08;;;;;;;1.82;1.10;;;;;;;22.17;36.97;93966.98;1711304;82;21063;-55
2021/05/15 10:51:47;;;;;;;4.17;1.25;;;;;;;22.12;36.36;93966.42;1711422;83;21067;-56
2021/05/15 10:54:38;;;;;;;1.50;1.22;;;;;;;21.96;36.54;93970.20;1709411;82;21286;-55
2021/05/15 10:57:14;;;;;;;2.85;1.32;;;;;;;21.78;36.72;93970.44;1711233;82;21040;-54
2021/05/15 10:59:43;;;;;;;1.95;0.90;;;;;;;21.69;37.65;93965.25;1711160;82;20975;-56
2021/05/15 11:02:13;;;;;;;3.35;1.12;;;;;;;21.72;37.22;93969.03;1711349;82;21032;-55
2021/05/15 11:04:53;;;;;;;1.25;0.98;;;;;;;21.69;37.47;93967.31;1711257;83;20991;-55
2021/05/15 11:07:35;;;;;;;3.10;1.10;;;;;;;21.67;37.65;93965.04;1711295;82;21053;-55
2021/05/15 11:10:05;;;;;;;1.40;1.00;;;;;;;21.71;39.88;93964.73;1711218;83;20962;-54
2021/05/15 11:12:44;;;;;;;1.95;1.32;;;;;;;21.69;39.16;93968.05;1711142;82;20975;-56
2021/05/15 11:15:14;;;;;;;1.00;0.90;;;;;;;21.64;37.83;93973.78;1711161;83;21535;-55
2021/05/15 11:17:41;;;;;;;1.00;0.90;;;;;;;21.58;37.98;93973.08;1711243;83;20979;-55
2021/05/15 11:20:14;;;;;;;3.20;1.62;;;;;;;21.60;39.17;93974.69;1711182;83;21074;-56
2021/05/15 11:22:53;;;;;;;1.25;0.80;;;;;;;21.54;37.91;93971.25;1711324;82;21500;-55
2021/05/15 11:25:28;;;;;;;2.33;0.90;;;;;;;21.58;37.40;93971.05;1711355;82;21132;-55
2021/05/15 11:28:03;;;;;;;1.12;0.90;;;;;;;21.58;37.48;93976.64;1711033;83;21020;-56
2021/05/15 11:30:42;;;;;;;2.80;1.35;;;;;;;21.59;37.45;93980.19;1711277;83;21015;-56
2021/05/15 11:33:12;;;;;;;1.80;1.00;;;;;;;21.49;38.06;93979.84;1711303;83;21082;-56
2021/05/15 11:35:56;;;;;;;5.37;1.32;;;;;;;21.41;37.72;93980.38;1710909;83;20995;-56
2021/05/15 11:38:27;;;;;;;3.08;1.50;;;;;;;21.30;38.26;93978.43;1711224;83;21076;-55
2021/05/15 11:41:01;;;;;;;2.25;1.37;;;;;;;21.20;39.30;93980.11;1711205;82;21094;-55